Time;durP1;ratioP1;P1;durP2;ratioP2;P2;SDS_P1;SDS_P2;PMS_P1;PMS_P2;Temp;Humidity;BMP_temperature;BMP_pressure;BME280_temperature;BME280_humidity;BME280_pressure;Samples;Min_cycle;Max_cycle;Signal;HPM_P1;HPM_P2
2023/06/12 00:02:07;;;;;;;5.70;3.70;;;25.30;48.00;;;;;;5063148;28;20071;-65
2023/06/12 00:04:33;;;;;;;6.82;3.97;;;25.30;48.00;;;;;;5071683;28;20119;-65
2023/06/12 00:06:59;;;;;;;6.10;3.85;;;25.30;48.00;;;;;;5073002;28;20472;-65
2023/06/12 00:09:25;;;;;;;7.10;3.60;;;25.30;48.00;;;;;;5053719;28;20060;-65
2023/06/12 00:11:50;;;;;;;6.97;3.28;;;25.30;48.00;;;;;;5071756;28;20079;-65
2023/06/12 00:14:16;;;;;;;7.25;3.25;;;25.30;48.00;;;;;;5054577;28;20098;-65
2023/06/12 00:16:41;;;;;;;6.47;3.28;;;25.20;47.90;;;;;;5072091;28;20052;-65
2023/06/12 00:19:07;;;;;;;5.63;3.10;;;25.30;47.90;;;;;;5072191;28;20059;-65
2023/06/12 00:21:32;;;;;;;5.53;3.38;;;25.30;48.00;;;;;;5071288;28;20485;-65
2023/06/12 00:23:58;;;;;;;7.47;3.42;;;25.30;48.00;;;;;;5071756;28;20045;-65
2023/06/12 00:26:23;;;;;;;5.88;3.50;;;25.20;47.90;;;;;;5070798;28;20049;-66
2023/06/12 00:28:49;;;;;;;6.03;3.42;;;25.20;47.80;;;;;;5071052;28;20484;-65
2023/06/12 00:31:15;;;;;;;5.13;3.30;;;25.20;47.70;;;;;;5070122;28;20403;-66
2023/06/12 00:33:40;;;;;;;6.63;3.75;;;25.20;47.80;;;;;;5071465;28;20047;-66
2023/06/12 00:36:06;;;;;;;5.80;2.90;;;25.20;47.80;;;;;;5071868;28;20102;-65
2023/06/12 00:38:34;;;;;;;5.68;3.25;;;25.20;47.80;;;;;;5071625;28;20055;-65
2023/06/12 00:41:00;;;;;;;;;;;25.20;47.70;;;;;;5071350;28;20401;-65
2023/06/12 00:43:25;;;;;;;5.07;3.13;;;25.20;47.90;;;;;;5072161;28;19931;-66
2023/06/12 00:45:51;;;;;;;7.20;3.53;;;25.20;47.90;;;;;;5071301;28;20041;-65
2023/06/12 00:48:17;;;;;;;5.63;3.30;;;25.20;47.80;;;;;;5052006;28;20053;-66
2023/06/12 00:50:44;;;;;;;5.70;3.08;;;25.20;47.70;;;;;;5062696;28;20045;-65
2023/06/12 00:53:10;;;;;;;7.97;3.00;;;25.20;47.70;;;;;;5069229;28;20419;-66
2023/06/12 00:55:35;;;;;;;5.68;3.20;;;25.20;47.70;;;;;;5070819;28;20048;-65
2023/06/12 00:58:01;;;;;;;5.53;2.97;;;25.20;47.60;;;;;;5072453;28;20449;-66
2023/06/12 01:00:27;;;;;;;6.93;2.88;;;25.20;47.70;;;;;;5071077;28;20040;-66
2023/06/12 01:03:06;;;;;;;6.05;2.53;;;25.20;47.70;;;;;;5068977;28;20047;-65
2023/06/12 01:05:35;;;;;;;4.95;3.03;;;25.20;47.60;;;;;;5057120;28;20056;-66
2023/06/12 01:08:20;;;;;;;5.72;3.08;;;25.20;47.60;;;;;;5058612;28;20037;-65
2023/06/12 01:10:57;;;;;;;6.10;2.92;;;25.20;47.70;;;;;;5076199;28;20498;-66
2023/06/12 01:13:23;;;;;;;4.72;2.65;;;25.20;47.60;;;;;;5075238;28;20045;-66
2023/06/12 01:15:49;;;;;;;5.43;2.85;;;25.20;47.60;;;;;;5057909;28;20040;-66
2023/06/12 01:18:14;;;;;;;5.55;2.88;;;25.10;47.50;;;;;;5075872;28;20040;-65
2023/06/12 01:20:40;;;;;;;4.95;2.92;;;25.20;47.50;;;;;;5075399;28;20094;-65
2023/06/12 01:23:20;;;;;;;6.40;3.03;;;25.20;47.50;;;;;;5058057;28;20036;-66
2023/06/12 01:25:56;;;;;;;6.15;3.15;;;25.10;47.50;;;;;;5057931;28;20037;-65
2023/06/12 01:28:43;;;;;;;4.82;2.92;;;25.10;47.50;;;;;;5073512;28;20060;-65
2023/06/12 01:31:43;;;;;;;5.55;2.78;;;25.10;47.50;;;;;;5057710;28;20532;-65
2023/06/12 01:34:20;;;;;;;7.07;2.78;;;25.10;47.50;;;;;;5074665;28;20480;-65
2023/06/12 01:36:50;;;;;;;6.10;2.60;;;25.10;47.40;;;;;;5054784;28;20055;-65
2023/06/12 01:39:16;;;;;;;7.03;2.80;;;25.10;47.40;;;;;;5054412;28;20394;-65
2023/06/12 01:41:41;;;;;;;4.13;2.80;;;25.10;47.40;;;;;;5071058;28;20060;-65
2023/06/12 01:44:10;;;;;;;5.90;2.53;;;25.10;47.40;;;;;;5040544;28;20033;-65
2023/06/12 01:46:36;;;;;;;6.35;2.45;;;25.10;47.40;;;;;;5075371;28;20086;-65
2023/06/12 01:49:06;;;;;;;5.63;2.53;;;25.00;47.40;;;;;;5073607;28;20124;-65
2023/06/12 01:51:31;;;;;;;4.63;2.38;;;25.10;47.40;;;;;;5073719;28;20086;-65
2023/06/12 01:53:57;;;;;;;5.85;2.60;;;25.10;47.40;;;;;;5074115;28;20130;-65
2023/06/12 01:56:25;;;;;;;4.82;2.70;;;25.10;47.40;;;;;;5074326;28;20048;-65
2023/06/12 01:58:54;;;;;;;;;;;25.10;47.40;;;;;;5075832;28;20044;-65
2023/06/12 02:01:20;;;;;;;5.03;2.47;;;25.00;47.50;;;;;;5070278;28;19951;-66
2023/06/12 02:03:46;;;;;;;6.95;2.78;;;25.00;47.40;;;;;;5071153;28;20049;-65
2023/06/12 02:06:16;;;;;;;5.07;2.30;;;25.00;47.40;;;;;;5073017;28;20198;-65
2023/06/12 02:08:42;;;;;;;5.43;2.47;;;25.00;47.40;;;;;;5075016;28;20068;-65
2023/06/12 02:11:07;;;;;;;4.53;2.50;;;25.00;47.40;;;;;;5073097;28;20510;-65
2023/06/12 02:13:33;;;;;;;5.13;2.25;;;25.00;47.40;;;;;;5075075;28;20052;-65
2023/06/12 02:16:00;;;;;;;7.10;2.80;;;25.00;47.40;;;;;;5071239;28;20041;-65
2023/06/12 02:18:25;;;;;;;4.82;2.70;;;25.00;47.40;;;;;;5074650;28;20048;-65
2023/06/12 02:20:51;;;;;;;5.25;2.85;;;25.00;47.40;;;;;;5073473;28;20403;-65
2023/06/12 02:23:16;;;;;;;5.65;2.30;;;25.00;47.40;;;;;;5072920;28;20115;-65
2023/06/12 02:25:42;;;;;;;4.78;2.28;;;24.90;47.30;;;;;;5074960;28;20097;-65
2023/06/12 02:28:08;;;;;;;4.55;2.60;;;25.00;47.70;;;;;;5074281;28;20102;-65
2023/06/12 02:30:34;;;;;;;5.68;2.58;;;24.90;47.30;;;;;;5072586;28;20036;-65
2023/06/12 02:33:02;;;;;;;4.95;2.58;;;24.90;47.30;;;;;;5074990;28;20098;-65
2023/06/12 02:35:28;;;;;;;4.15;2.42;;;24.90;47.30;;;;;;5074324;28;20040;-65
2023/06/12 02:37:53;;;;;;;6.20;2.55;;;24.90;47.30;;;;;;5084123;28;20040;-66
2023/06/12 02:40:19;;;;;;;5.03;2.28;;;24.90;47.30;;;;;;5091630;28;20044;-65
2023/06/12 02:42:44;;;;;;;6.93;2.20;;;24.90;47.30;;;;;;5074704;28;20480;-66
2023/06/12 02:45:10;;;;;;;5.65;2.47;;;24.90;47.30;;;;;;5073455;28;20044;-66
2023/06/12 02:47:36;;;;;;;6.43;2.50;;;24.90;47.40;;;;;;5074426;28;20444;-65
2023/06/12 02:50:02;;;;;;;4.40;2.10;;;24.90;47.30;;;;;;5072893;28;20079;-66
2023/06/12 02:52:27;;;;;;;4.97;2.65;;;24.90;47.30;;;;;;5071871;28;20051;-66
2023/06/12 02:54:53;;;;;;;6.43;2.40;;;24.90;47.40;;;;;;5074290;28;20048;-66
2023/06/12 02:57:18;;;;;;;7.07;2.50;;;24.90;47.40;;;;;;5072835;28;20048;-65
2023/06/12 02:59:44;;;;;;;4.68;2.67;;;24.90;47.30;;;;;;5073661;28;20119;-65
2023/06/12 03:02:10;;;;;;;4.97;2.65;;;24.80;47.30;;;;;;5064806;28;20046;-66
2023/06/12 03:04:35;;;;;;;8.35;2.53;;;24.80;47.30;;;;;;5074159;28;20052;-65
2023/06/12 03:07:06;;;;;;;4.70;2.30;;;24.80;47.30;;;;;;5073265;28;20036;-65
2023/06/12 03:09:34;;;;;;;7.70;2.45;;;24.80;47.30;;;;;;5074028;28;20385;-65
2023/06/12 03:12:00;;;;;;;4.97;2.40;;;24.80;47.30;;;;;;5072456;28;20396;-66
2023/06/12 03:14:26;;;;;;;5.95;2.50;;;24.80;47.40;;;;;;5073442;28;20041;-66
2023/06/12 03:16:51;;;;;;;6.22;2.50;;;24.80;47.40;;;;;;5073630;28;20097;-65
2023/06/12 03:19:17;;;;;;;5.82;2.20;;;24.80;47.40;;;;;;5072970;28;20044;-66
2023/06/12 03:21:43;;;;;;;4.97;2.53;;;24.80;47.50;;;;;;5073863;28;20132;-65
2023/06/12 03:24:09;;;;;;;5.88;2.42;;;24.80;47.40;;;;;;5072415;28;20553;-67
2023/06/12 03:26:34;;;;;;;7.55;2.42;;;24.80;47.50;;;;;;5072598;28;20037;-65
2023/06/12 03:29:00;;;;;;;6.35;2.50;;;24.80;47.40;;;;;;5073057;28;20147;-65
2023/06/12 03:31:27;;;;;;;7.82;2.40;;;24.80;47.40;;;;;;5073371;28;20143;-65
2023/06/12 03:33:55;;;;;;;6.55;2.50;;;24.80;47.40;;;;;;5072532;28;20048;-65
2023/06/12 03:36:23;;;;;;;4.40;2.10;;;24.80;47.50;;;;;;5071713;28;20499;-65
2023/06/12 03:38:49;;;;;;;5.75;2.75;;;24.70;47.50;;;;;;5072493;28;20036;-65
2023/06/12 03:41:15;;;;;;;5.40;2.83;;;24.80;47.50;;;;;;5072433;28;20112;-66
2023/06/12 03:43:40;;;;;;;7.40;2.50;;;24.70;47.40;;;;;;5072036;28;20614;-65
2023/06/12 03:46:06;;;;;;;5.78;2.75;;;24.70;47.50;;;;;;5072588;28;20045;-65
2023/06/12 03:48:32;;;;;;;5.10;2.30;;;24.80;47.50;;;;;;5072697;28;20052;-65
2023/06/12 03:50:57;;;;;;;5.38;2.40;;;24.80;47.60;;;;;;5075338;28;20085;-65
2023/06/12 03:53:23;;;;;;;4.90;2.33;;;24.70;47.60;;;;;;5073050;28;20044;-66
2023/06/12 03:55:48;;;;;;;5.10;2.40;;;24.70;47.60;;;;;;5071198;28;20051;-65
2023/06/12 03:58:16;;;;;;;4.40;2.10;;;24.70;47.60;;;;;;5072676;28;20391;-65
2023/06/12 04:00:47;;;;;;;6.28;2.42;;;24.70;47.60;;;;;;5070268;28;20047;-65
2023/06/12 04:03:17;;;;;;;6.43;2.40;;;24.70;47.70;;;;;;5058643;28;20166;-66
2023/06/12 04:05:49;;;;;;;6.15;2.63;;;24.70;47.70;;;;;;5070519;28;20083;-66
2023/06/12 04:08:15;;;;;;;5.75;2.63;;;24.70;47.70;;;;;;5071986;28;20131;-66
2023/06/12 04:10:40;;;;;;;5.22;2.20;;;24.70;47.80;;;;;;5070892;28;20158;-65
2023/06/12 04:13:06;;;;;;;5.97;2.10;;;24.70;47.80;;;;;;5072747;28;20074;-66
2023/06/12 04:15:32;;;;;;;5.80;2.35;;;24.70;47.90;;;;;;5069324;28;20078;-66
2023/06/12 04:17:58;;;;;;;4.93;2.42;;;24.70;47.90;;;;;;5071614;28;20052;-66
2023/06/12 04:20:26;;;;;;;4.32;2.53;;;24.70;47.90;;;;;;5072478;28;20079;-65
2023/06/12 04:22:52;;;;;;;4.22;2.47;;;24.70;47.90;;;;;;5071858;28;20040;-66
2023/06/12 04:25:18;;;;;;;7.03;2.63;;;24.70;48.00;;;;;;5071199;28;20079;-65
2023/06/12 04:27:44;;;;;;;4.85;2.40;;;24.70;48.00;;;;;;5072258;28;20056;-65
2023/06/12 04:30:10;;;;;;;6.18;2.45;;;24.70;48.10;;;;;;5071410;28;20098;-66
2023/06/12 04:32:37;;;;;;;5.63;2.67;;;24.70;48.10;;;;;;5071489;28;20049;-65
2023/06/12 04:35:05;;;;;;;5.55;2.38;;;24.70;48.10;;;;;;5072702;28;20043;-66
2023/06/12 04:37:30;;;;;;;;;;;24.70;48.10;;;;;;5071885;28;20048;-66
2023/06/12 04:39:57;;;;;;;6.72;2.83;;;24.70;48.30;;;;;;5080876;28;19927;-65
2023/06/12 04:42:24;;;;;;;5.30;2.90;;;24.60;48.10;;;;;;5084578;28;20066;-66
2023/06/12 04:44:50;;;;;;;6.35;2.72;;;24.70;48.20;;;;;;5089028;28;20131;-65
2023/06/12 04:47:16;;;;;;;5.85;2.33;;;24.60;48.20;;;;;;5063450;28;20115;-66
2023/06/12 04:49:44;;;;;;;5.70;2.83;;;24.60;48.30;;;;;;5072459;28;20055;-66
2023/06/12 04:52:12;;;;;;;4.68;2.65;;;24.70;48.30;;;;;;5069973;28;20041;-66
2023/06/12 04:54:41;;;;;;;3.75;2.35;;;24.70;48.30;;;;;;5071097;28;20052;-66
2023/06/12 04:57:08;;;;;;;6.50;2.70;;;24.70;48.40;;;;;;5070460;28;20043;-65
2023/06/12 04:59:37;;;;;;;5.30;2.70;;;24.70;48.40;;;;;;5070242;28;20071;-66
2023/06/12 05:02:03;;;;;;;5.80;2.42;;;24.70;48.30;;;;;;5061485;28;20071;-66
2023/06/12 05:04:28;;;;;;;4.88;2.40;;;24.70;48.40;;;;;;5070637;28;20041;-66
2023/06/12 05:06:56;;;;;;;4.90;2.67;;;24.70;48.50;;;;;;5069937;28;20063;-66
2023/06/12 05:09:21;;;;;;;4.73;2.60;;;24.70;48.50;;;;;;5072231;28;20091;-66
2023/06/12 05:11:47;;;;;;;5.95;2.83;;;24.70;48.60;;;;;;5071071;28;20554;-66
2023/06/12 05:14:12;;;;;;;6.55;2.58;;;24.70;48.60;;;;;;5071738;28;20072;-65
2023/06/12 05:16:38;;;;;;;6.07;2.50;;;24.70;48.60;;;;;;5072200;28;20051;-65
2023/06/12 05:19:05;;;;;;;11.50;2.90;;;24.70;48.60;;;;;;5070179;28;20048;-65
2023/06/12 05:21:30;;;;;;;6.45;2.40;;;24.70;48.60;;;;;;5072000;28;20063;-66
2023/06/12 05:23:56;;;;;;;6.38;2.70;;;24.70;48.70;;;;;;5072249;28;20481;-66
2023/06/12 05:26:21;;;;;;;5.70;2.78;;;24.70;48.70;;;;;;5070743;28;20040;-65
2023/06/12 05:28:47;;;;;;;5.65;2.97;;;24.60;48.60;;;;;;5071862;28;20052;-66
2023/06/12 05:31:13;;;;;;;7.40;2.50;;;24.70;48.70;;;;;;5071413;28;20044;-66
2023/06/12 05:33:39;;;;;;;5.88;2.47;;;24.70;48.70;;;;;;5071118;28;20044;-66
2023/06/12 05:36:07;;;;;;;7.05;2.63;;;24.70;48.80;;;;;;5070435;28;20051;-66
2023/06/12 05:38:32;;;;;;;4.18;2.45;;;24.70;48.80;;;;;;5071790;28;20047;-66
2023/06/12 05:40:58;;;;;;;6.07;2.53;;;24.70;48.90;;;;;;5071275;28;20044;-66
2023/06/12 05:43:24;;;;;;;4.30;2.40;;;24.70;48.90;;;;;;5069023;28;20063;-66
2023/06/12 05:45:49;;;;;;;8.82;3.00;;;24.70;48.90;;;;;;5070948;28;20048;-66
2023/06/12 05:48:15;;;;;;;5.50;2.40;;;24.70;49.00;;;;;;5065976;28;20047;-66
2023/06/12 05:50:40;;;;;;;4.85;2.60;;;24.60;48.90;;;;;;5073325;28;20037;-66
2023/06/12 05:53:08;;;;;;;4.82;2.67;;;24.70;48.90;;;;;;5075050;28;20436;-66
2023/06/12 05:55:34;;;;;;;5.82;2.88;;;24.70;49.00;;;;;;5073268;28;20812;-66
2023/06/12 05:57:59;;;;;;;3.97;2.60;;;24.70;49.00;;;;;;5074157;28;20056;-66
2023/06/12 06:00:25;;;;;;;4.70;2.45;;;24.70;49.10;;;;;;5074017;28;20041;-71
2023/06/12 06:02:51;;;;;;;9.35;4.20;;;24.70;49.10;;;;;;5066689;28;20448;-71
2023/06/12 06:05:17;;;;;;;9.32;4.35;;;24.70;48.70;;;;;;5074563;28;20044;-71
2023/06/12 06:07:43;;;;;;;10.23;4.53;;;24.50;48.60;;;;;;5075058;28;20050;-72
2023/06/12 06:10:08;;;;;;;7.65;4.15;;;24.30;48.80;;;;;;5072538;28;20049;-71
2023/06/12 06:12:34;;;;;;;7.43;4.22;;;24.20;49.10;;;;;;5075262;28;20464;-72
2023/06/12 06:15:00;;;;;;;10.77;4.72;;;24.10;49.30;;;;;;5074177;28;20041;-73
2023/06/12 06:17:25;;;;;;;9.45;4.50;;;24.00;49.60;;;;;;5073191;28;20101;-68
2023/06/12 06:19:51;;;;;;;9.18;4.93;;;23.90;49.90;;;;;;5074964;28;20079;-72
2023/06/12 06:22:17;;;;;;;11.90;4.93;;;23.90;50.20;;;;;;5076494;28;20086;-73
2023/06/12 06:24:43;;;;;;;11.57;5.03;;;23.80;50.30;;;;;;5073916;28;20231;-73
2023/06/12 06:27:09;;;;;;;10.57;4.47;;;23.80;50.50;;;;;;5087635;28;20041;-72
2023/06/12 06:29:35;;;;;;;10.00;4.90;;;23.80;50.60;;;;;;5072697;28;20097;-74
2023/06/12 06:32:00;;;;;;;14.10;7.18;;;23.80;50.80;;;;;;5074793;28;20049;-73
2023/06/12 06:34:27;;;;;;;9.90;4.65;;;23.80;50.70;;;;;;5074146;28;20162;-73
2023/06/12 06:36:53;;;;;;;10.90;5.30;;;23.80;50.60;;;;;;5073598;28;20088;-73
2023/06/12 06:39:19;;;;;;;8.00;5.07;;;23.80;50.60;;;;;;5074342;28;20090;-73
2023/06/12 06:41:44;;;;;;;9.18;5.10;;;23.80;50.80;;;;;;5073796;28;20041;-73
2023/06/12 06:44:10;;;;;;;12.35;5.50;;;23.70;50.90;;;;;;5073462;28;20513;-73
2023/06/12 06:46:35;;;;;;;13.07;5.40;;;23.70;51.10;;;;;;5072619;28;20044;-69
2023/06/12 06:49:01;;;;;;;7.82;5.15;;;23.70;51.10;;;;;;5072873;28;20048;-69
2023/06/12 06:51:28;;;;;;;8.98;5.18;;;23.70;51.20;;;;;;5073016;28;20048;-73
2023/06/12 06:53:53;;;;;;;9.40;4.85;;;23.70;51.30;;;;;;5079015;28;20036;-69
2023/06/12 06:56:19;;;;;;;12.35;5.07;;;23.70;51.30;;;;;;5094253;28;20097;-70
2023/06/12 06:58:45;;;;;;;7.68;4.72;;;23.60;51.20;;;;;;5075726;28;20052;-72
2023/06/12 07:01:11;;;;;;;9.65;4.45;;;23.60;51.20;;;;;;5070718;28;20459;-70
2023/06/12 07:03:36;;;;;;;7.55;4.82;;;23.60;51.30;;;;;;5067547;28;20052;-71
2023/06/12 07:06:02;;;;;;;11.52;5.18;;;23.60;51.40;;;;;;5071791;28;20044;-74
2023/06/12 07:08:28;;;;;;;9.93;5.47;;;23.60;51.40;;;;;;5073447;28;20047;-72
2023/06/12 07:10:53;;;;;;;8.52;4.88;;;23.60;51.30;;;;;;5072689;28;20044;-73
2023/06/12 07:13:19;;;;;;;11.65;5.50;;;23.60;51.40;;;;;;5084629;28;20122;-72
2023/06/12 07:15:44;;;;;;;10.23;5.03;;;23.60;51.50;;;;;;5093742;28;20083;-71
2023/06/12 07:18:11;;;;;;;8.77;5.10;;;23.60;51.60;;;;;;5082081;28;20056;-74
2023/06/12 07:20:36;;;;;;;11.80;5.63;;;23.60;51.60;;;;;;5072293;28;20045;-75
2023/06/12 07:23:02;;;;;;;8.60;5.40;;;23.60;51.40;;;;;;5073497;28;20048;-72
2023/06/12 07:25:27;;;;;;;9.75;5.00;;;23.60;51.50;;;;;;5072732;28;20033;-70
2023/06/12 07:27:53;;;;;;;7.32;4.82;;;23.70;52.50;;;;;;5072476;28;20512;-73
2023/06/12 07:30:19;;;;;;;8.50;4.88;;;23.70;52.60;;;;;;5091515;28;20407;-73
2023/06/12 07:32:44;;;;;;;11.25;5.72;;;23.70;52.00;;;;;;5085011;28;20208;-76
2023/06/12 07:35:10;;;;;;;11.57;5.60;;;23.70;52.10;;;;;;5071825;28;20492;-73
2023/06/12 07:37:35;;;;;;;13.10;5.30;;;23.70;52.10;;;;;;5072054;28;20621;-73
2023/06/12 07:40:05;;;;;;;9.63;5.38;;;23.70;52.10;;;;;;5071546;28;20534;-77
2023/06/12 07:42:31;;;;;;;9.18;5.47;;;23.70;52.10;;;;;;5072781;28;20055;-76
2023/06/12 07:44:56;;;;;;;10.25;5.00;;;23.80;52.30;;;;;;5072206;28;20036;-75
2023/06/12 07:47:22;;;;;;;9.23;5.50;;;23.80;52.40;;;;;;5072759;28;20067;-73
2023/06/12 07:49:47;;;;;;;10.10;5.03;;;23.80;52.50;;;;;;5073819;28;20047;-72
2023/06/12 07:52:13;;;;;;;9.32;5.60;;;23.80;52.50;;;;;;5071824;28;20135;-74
2023/06/12 07:54:38;;;;;;;10.77;5.18;;;23.90;52.60;;;;;;5072751;28;20131;-70
2023/06/12 07:57:06;;;;;;;9.10;5.60;;;23.90;52.60;;;;;;5073674;28;20041;-74
2023/06/12 07:59:31;;;;;;;10.25;4.50;;;23.90;52.70;;;;;;5073372;28;20055;-74
2023/06/12 08:01:57;;;;;;;10.00;4.43;;;24.00;52.70;;;;;;5063989;28;20036;-75
2023/06/12 08:04:23;;;;;;;9.38;5.43;;;24.00;52.50;;;;;;5073180;28;20489;-76
2023/06/12 08:06:49;;;;;;;6.95;4.72;;;24.00;52.40;;;;;;5071935;28;20048;-66
2023/06/12 08:09:15;;;;;;;9.52;4.50;;;24.00;52.30;;;;;;5072235;28;20498;-72
2023/06/12 08:11:41;;;;;;;9.07;4.43;;;24.00;52.30;;;;;;5073385;28;20044;-72
2023/06/12 08:14:07;;;;;;;8.55;4.35;;;24.10;52.30;;;;;;5071505;28;20484;-71
2023/06/12 08:16:32;;;;;;;8.82;4.65;;;24.10;52.20;;;;;;5070966;28;20048;-72
2023/06/12 08:18:58;;;;;;;7.40;4.43;;;24.20;52.20;;;;;;5073158;28;20037;-71
2023/06/12 08:21:25;;;;;;;6.82;4.45;;;24.20;52.10;;;;;;5072805;28;20123;-71
2023/06/12 08:23:51;;;;;;;10.50;4.93;;;24.20;52.00;;;;;;5072456;28;20040;-71
2023/06/12 08:26:17;;;;;;;6.22;4.25;;;24.30;52.00;;;;;;5072826;28;20044;-72
2023/06/12 08:28:43;;;;;;;7.32;4.22;;;24.30;52.00;;;;;;5071979;28;20075;-72
2023/06/12 08:31:09;;;;;;;6.95;4.55;;;24.40;52.00;;;;;;5071220;28;20055;-71
2023/06/12 08:33:34;;;;;;;9.55;4.70;;;24.40;52.00;;;;;;5072659;28;20044;-71
2023/06/12 08:36:00;;;;;;;7.15;4.25;;;24.50;52.00;;;;;;5070525;28;20051;-72
2023/06/12 08:38:26;;;;;;;9.88;4.13;;;24.50;52.00;;;;;;5072682;28;20046;-71
2023/06/12 08:40:57;;;;;;;8.35;4.22;;;24.50;51.90;;;;;;5072733;28;20044;-71
2023/06/12 08:43:23;;;;;;;9.65;4.22;;;24.50;51.90;;;;;;5070618;28;20067;-72
2023/06/12 08:45:50;;;;;;;6.32;4.13;;;24.50;51.90;;;;;;5054793;28;20544;-71
2023/06/12 08:48:17;;;;;;;8.65;4.40;;;24.60;52.00;;;;;;5071076;28;20044;-71
2023/06/12 08:50:43;;;;;;;6.40;3.92;;;24.60;52.00;;;;;;5072177;28;20124;-71
2023/06/12 08:53:08;;;;;;;7.00;4.03;;;24.60;52.00;;;;;;5076628;28;20122;-70
2023/06/12 08:55:39;;;;;;;8.20;4.20;;;24.60;52.00;;;;;;5090914;28;20047;-69
2023/06/12 08:58:07;;;;;;;7.15;3.97;;;24.70;52.10;;;;;;5051935;28;20044;-70
2023/06/12 09:00:33;;;;;;;6.70;4.00;;;24.70;52.30;;;;;;5071043;28;20055;-70
2023/06/12 09:03:00;;;;;;;8.13;4.38;;;24.70;52.40;;;;;;5063646;28;20044;-73
2023/06/12 09:05:30;;;;;;;6.47;4.15;;;24.70;52.40;;;;;;5052776;28;20484;-70
2023/06/12 09:07:58;;;;;;;7.07;4.10;;;24.70;52.70;;;;;;5071398;28;20068;-70
2023/06/12 09:10:23;;;;;;;8.43;4.38;;;24.70;52.90;;;;;;5071617;28;20048;-68
2023/06/12 09:12:53;;;;;;;9.52;4.10;;;24.80;53.10;;;;;;5071081;28;20401;-69
2023/06/12 09:15:19;;;;;;;7.53;4.20;;;24.80;53.70;;;;;;5070176;28;20389;-68
2023/06/12 09:17:52;;;;;;;6.68;3.90;;;24.80;53.50;;;;;;5070088;28;20051;-71
2023/06/12 09:20:44;;;;;;;11.25;4.53;;;24.80;53.60;;;;;;5070300;28;20052;-67
2023/06/12 09:23:11;;;;;;;9.00;4.40;;;24.80;53.70;;;;;;5067383;28;20526;-67
2023/06/12 09:25:40;;;;;;;5.80;3.92;;;24.80;53.70;;;;;;5071343;28;20049;-67
2023/06/12 09:28:08;;;;;;;6.43;4.00;;;24.90;53.90;;;;;;5075290;28;20063;-67
2023/06/12 09:30:43;;;;;;;7.82;4.00;;;24.90;53.90;;;;;;5074159;28;20102;-70
2023/06/12 09:33:09;;;;;;;6.53;3.67;;;24.90;54.00;;;;;;5073415;28;20040;-67
2023/06/12 09:35:51;;;;;;;7.95;4.53;;;24.90;53.90;;;;;;5075384;28;20436;-67
2023/06/12 09:38:16;;;;;;;6.50;4.07;;;24.90;54.10;;;;;;5074869;28;20051;-67
2023/06/12 09:40:42;;;;;;;6.03;4.15;;;25.00;54.10;;;;;;5074404;28;20032;-67
2023/06/12 09:43:07;;;;;;;6.70;3.78;;;25.00;54.10;;;;;;5073062;28;20504;-68
2023/06/12 09:45:33;;;;;;;6.18;4.35;;;25.00;54.00;;;;;;5073977;28;20044;-67
2023/06/12 09:47:59;;;;;;;7.07;4.40;;;25.00;53.90;;;;;;5073393;28;20040;-65
2023/06/12 09:50:25;;;;;;;7.85;4.05;;;25.00;53.80;;;;;;5075768;28;20119;-66
2023/06/12 09:52:52;;;;;;;8.35;4.47;;;25.10;53.80;;;;;;5074414;28;20051;-66
2023/06/12 09:55:18;;;;;;;5.78;3.75;;;25.00;53.70;;;;;;5057072;28;20549;-66
2023/06/12 09:57:50;;;;;;;7.45;4.03;;;25.00;53.50;;;;;;5074720;28;20507;-66
2023/06/12 10:00:16;;;;;;;7.30;4.20;;;25.10;53.40;;;;;;5073238;28;20037;-68
2023/06/12 10:02:56;;;;;;;8.48;4.13;;;25.10;53.40;;;;;;5066528;28;20044;-68
2023/06/12 10:05:25;;;;;;;7.40;4.30;;;25.10;53.80;;;;;;5075445;28;20040;-67
2023/06/12 10:07:53;;;;;;;6.43;4.20;;;25.10;53.90;;;;;;5073518;28;20051;-73
2023/06/12 10:10:19;;;;;;;;;;;25.20;54.20;;;;;;5073828;28;20051;-69
2023/06/12 10:12:45;;;;;;;6.57;3.90;;;25.10;54.20;;;;;;5075237;28;19920;-69
2023/06/12 10:15:11;;;;;;;7.50;4.28;;;25.10;54.40;;;;;;5072476;28;20051;-70
2023/06/12 10:17:37;;;;;;;5.05;3.83;;;25.20;54.60;;;;;;5074439;28;20033;-72
2023/06/12 10:20:03;;;;;;;7.15;4.30;;;25.10;54.50;;;;;;5056720;28;20066;-70
2023/06/12 10:22:29;;;;;;;8.30;3.97;;;25.20;54.60;;;;;;5070792;28;20067;-69
2023/06/12 10:24:57;;;;;;;6.90;4.28;;;25.20;54.70;;;;;;5074367;28;20460;-69
2023/06/12 10:27:22;;;;;;;7.07;4.28;;;25.20;54.60;;;;;;5072748;28;20057;-71
2023/06/12 10:29:55;;;;;;;8.55;4.63;;;25.20;54.60;;;;;;5064262;28;20114;-68
2023/06/12 10:32:20;;;;;;;6.25;4.00;;;25.20;54.60;;;;;;5074588;28;20124;-69
2023/06/12 10:34:48;;;;;;;8.88;4.05;;;25.20;54.60;;;;;;5074896;28;20146;-69
2023/06/12 10:37:20;;;;;;;7.80;4.68;;;25.20;54.60;;;;;;5071542;28;20459;-69
2023/06/12 10:39:46;;;;;;;8.40;4.05;;;25.20;54.50;;;;;;5062820;28;20076;-69
2023/06/12 10:42:11;;;;;;;7.85;4.18;;;25.20;54.40;;;;;;5052802;28;20087;-69
2023/06/12 10:44:41;;;;;;;7.85;4.85;;;25.20;54.40;;;;;;5054663;28;20037;-69
2023/06/12 10:47:21;;;;;;;7.85;4.47;;;25.20;54.50;;;;;;5054467;28;20041;-70
2023/06/12 10:50:03;;;;;;;8.00;3.83;;;25.20;54.60;;;;;;5052853;28;20049;-69
2023/06/12 10:52:28;;;;;;;6.50;4.57;;;25.20;54.50;;;;;;5054203;28;20522;-70
2023/06/12 10:55:13;;;;;;;9.95;4.93;;;25.20;54.30;;;;;;5065060;28;20048;-70
2023/06/12 10:57:39;;;;;;;7.18;4.35;;;25.30;54.50;;;;;;5046681;28;20059;-68
2023/06/12 11:00:10;;;;;;;9.10;4.60;;;25.30;54.40;;;;;;5054679;28;20037;-68
2023/06/12 11:02:36;;;;;;;8.05;4.30;;;25.30;54.40;;;;;;5054826;28;20064;-68
2023/06/12 11:05:05;;;;;;;8.32;4.13;;;25.30;54.30;;;;;;5035976;28;20492;-69
2023/06/12 11:07:34;;;;;;;8.48;4.10;;;25.30;54.30;;;;;;5057058;28;20119;-69
2023/06/12 11:10:08;;;;;;;7.97;3.78;;;25.30;54.30;;;;;;5057673;28;20040;-69
2023/06/12 11:12:34;;;;;;;7.53;4.15;;;25.30;54.30;;;;;;5061320;28;20040;-70
2023/06/12 11:14:59;;;;;;;8.43;4.40;;;25.30;54.30;;;;;;5071558;28;20489;-69
2023/06/12 11:17:25;;;;;;;6.90;4.20;;;25.30;54.30;;;;;;5063986;28;20890;-69
2023/06/12 11:19:58;;;;;;;6.32;4.18;;;25.30;54.30;;;;;;5072466;28;20032;-68
2023/06/12 11:22:24;;;;;;;6.60;4.10;;;25.30;54.40;;;;;;5073138;28;20502;-69
2023/06/12 11:24:50;;;;;;;6.70;4.35;;;25.30;54.30;;;;;;5073560;28;20143;-69
2023/06/12 11:27:15;;;;;;;6.43;4.38;;;25.30;54.30;;;;;;5072294;28;20049;-70
2023/06/12 11:29:41;;;;;;;6.75;3.72;;;25.30;54.30;;;;;;5072672;28;20052;-69
2023/06/12 11:32:07;;;;;;;7.68;4.60;;;25.40;54.40;;;;;;5072766;28;20122;-69
2023/06/12 11:34:36;;;;;;;8.00;4.28;;;25.40;54.40;;;;;;5072990;28;20098;-68
2023/06/12 11:37:15;;;;;;;6.70;4.15;;;25.40;54.40;;;;;;5072530;28;20143;-68
2023/06/12 11:39:41;;;;;;;6.43;4.10;;;25.40;54.30;;;;;;5073157;28;20045;-72
2023/06/12 11:42:12;;;;;;;7.35;4.38;;;25.40;54.30;;;;;;5071781;28;20407;-69
2023/06/12 11:44:41;;;;;;;5.22;3.80;;;25.40;54.50;;;;;;5073847;28;20067;-67
2023/06/12 11:47:07;;;;;;;8.93;4.45;;;25.40;54.40;;;;;;5072425;28;20444;-67
2023/06/12 11:49:34;;;;;;;6.05;3.80;;;25.40;54.40;;;;;;5073150;28;20484;-67
2023/06/12 11:52:00;;;;;;;6.20;4.10;;;25.50;54.40;;;;;;5068038;28;20024;-67
2023/06/12 11:54:26;;;;;;;8.23;4.13;;;25.40;54.40;;;;;;5068429;28;20055;-66
2023/06/12 11:56:52;;;;;;;6.40;4.30;;;25.50;54.40;;;;;;5073576;28;20068;-68
2023/06/12 11:59:18;;;;;;;5.32;4.13;;;25.40;54.30;;;;;;5055317;28;20037;-68
2023/06/12 12:01:48;;;;;;;5.13;4.20;;;25.50;54.20;;;;;;5072358;28;20466;-72
2023/06/12 12:04:17;;;;;;;7.68;4.78;;;25.50;54.20;;;;;;5071618;28;20082;-69
2023/06/12 12:06:52;;;;;;;5.20;3.88;;;25.50;54.10;;;;;;5054984;28;20076;-69
2023/06/12 12:09:23;;;;;;;10.02;4.57;;;25.50;54.10;;;;;;5073132;28;20036;-68
2023/06/12 12:11:49;;;;;;;7.75;4.68;;;25.50;54.10;;;;;;5073098;28;20132;-67
2023/06/12 12:14:14;;;;;;;7.00;4.35;;;25.50;54.00;;;;;;5071967;28;20131;-69
2023/06/12 12:16:43;;;;;;;9.43;4.70;;;25.50;53.90;;;;;;5071897;28;20080;-70
2023/06/12 12:19:19;;;;;;;7.93;4.85;;;25.50;54.10;;;;;;5073052;28;20044;-69
2023/06/12 12:21:46;;;;;;;5.90;4.63;;;25.50;54.50;;;;;;5072413;28;20079;-68
2023/06/12 12:24:12;;;;;;;9.25;4.50;;;25.50;54.50;;;;;;5071394;28;20048;-68
2023/06/12 12:26:41;;;;;;;6.18;4.18;;;25.50;54.80;;;;;;5071715;28;20040;-67
2023/06/12 12:29:08;;;;;;;7.95;4.47;;;25.50;55.00;;;;;;5071504;28;20072;-69
2023/06/12 12:31:36;;;;;;;6.60;5.03;;;25.50;55.10;;;;;;5072765;28;20045;-69
2023/06/12 12:34:02;;;;;;;7.40;4.75;;;25.50;55.20;;;;;;5072751;28;20536;-68
2023/06/12 12:36:27;;;;;;;6.47;4.35;;;25.50;55.30;;;;;;5071716;28;20048;-67
2023/06/12 12:38:53;;;;;;;6.57;4.57;;;25.50;55.10;;;;;;5071025;28;20090;-67
2023/06/12 12:41:19;;;;;;;7.32;5.00;;;25.50;54.80;;;;;;5071246;28;20131;-67
2023/06/12 12:43:44;;;;;;;9.07;4.93;;;25.60;54.90;;;;;;5071845;28;20044;-66
2023/06/12 12:46:10;;;;;;;9.15;4.78;;;25.60;54.80;;;;;;5072521;28;20047;-67
2023/06/12 12:48:36;;;;;;;7.35;4.65;;;25.60;54.80;;;;;;5047284;28;20045;-66